sensor_id;sensor_type;location;lat;lon;timestamp;temperature;humidity
40434;DHT22;26146;51.114;5.654;2022-09-21T00:01:35;11.10;99.90
40434;DHT22;26146;51.114;5.654;2022-09-21T00:05:36;11.10;99.90
40434;DHT22;26146;51.114;5.654;2022-09-21T00:09:39;11.10;99.90
40434;DHT22;26146;51.114;5.654;2022-09-21T00:13:41;11.00;99.90
40434;DHT22;26146;51.114;5.654;2022-09-21T00:17:44;10.90;99.90
40434;DHT22;26146;51.114;5.654;2022-09-21T00:21:48;10.70;99.90
40434;DHT22;26146;51.114;5.654;2022-09-21T00:25:49;10.80;99.90
40434;DHT22;26146;51.114;5.654;2022-09-21T00:29:50;10.60;99.90
40434;DHT22;26146;51.114;5.654;2022-09-21T00:33:54;10.50;99.90
40434;DHT22;26146;51.114;5.654;2022-09-21T00:37:55;10.50;99.90
40434;DHT22;26146;51.114;5.654;2022-09-21T00:41:59;10.50;99.90
40434;DHT22;26146;51.114;5.654;2022-09-21T00:46:04;10.30;99.90
40434;DHT22;26146;51.114;5.654;2022-09-21T00:50:09;10.20;99.90
40434;DHT22;26146;51.114;5.654;2022-09-21T00:54:15;10.00;99.90
40434;DHT22;26146;51.114;5.654;2022-09-21T00:58:22;9.90;99.90
40434;DHT22;26146;51.114;5.654;2022-09-21T01:02:25;9.80;99.90
40434;DHT22;26146;51.114;5.654;2022-09-21T01:06:26;9.80;99.90
40434;DHT22;26146;51.114;5.654;2022-09-21T01:10:30;9.80;99.90
40434;DHT22;26146;51.114;5.654;2022-09-21T01:19:12;9.80;99.90
40434;DHT22;26146;51.114;5.654;2022-09-21T01:27:37;9.60;99.90
40434;DHT22;26146;51.114;5.654;2022-09-21T01:31:52;9.50;99.90
40434;DHT22;26146;51.114;5.654;2022-09-21T01:36:02;9.50;99.90
40434;DHT22;26146;51.114;5.654;2022-09-21T01:40:08;9.40;99.90
40434;DHT22;26146;51.114;5.654;2022-09-21T01:44:16;9.30;99.90
40434;DHT22;26146;51.114;5.654;2022-09-21T01:48:19;9.30;99.90
40434;DHT22;26146;51.114;5.654;2022-09-21T01:52:36;9.10;99.90
40434;DHT22;26146;51.114;5.654;2022-09-21T01:56:43;9.20;99.90
40434;DHT22;26146;51.114;5.654;2022-09-21T02:00:49;9.00;99.90
40434;DHT22;26146;51.114;5.654;2022-09-21T02:04:52;9.00;99.90
40434;DHT22;26146;51.114;5.654;2022-09-21T02:08:53;9.00;99.90
40434;DHT22;26146;51.114;5.654;2022-09-21T02:12:56;8.80;99.90
40434;DHT22;26146;51.114;5.654;2022-09-21T02:17:14;8.70;99.90
40434;DHT22;26146;51.114;5.654;2022-09-21T02:34:18;8.70;99.90
40434;DHT22;26146;51.114;5.654;2022-09-21T02:42:26;8.50;99.90
40434;DHT22;26146;51.114;5.654;2022-09-21T02:46:40;8.60;99.90
40434;DHT22;26146;51.114;5.654;2022-09-21T02:51:03;8.50;99.90
40434;DHT22;26146;51.114;5.654;2022-09-21T02:55:06;8.40;99.90
40434;DHT22;26146;51.114;5.654;2022-09-21T02:59:09;8.40;99.90
40434;DHT22;26146;51.114;5.654;2022-09-21T03:03:19;8.50;99.90
40434;DHT22;26146;51.114;5.654;2022-09-21T03:07:21;8.50;99.90
40434;DHT22;26146;51.114;5.654;2022-09-21T03:11:22;8.40;99.90
40434;DHT22;26146;51.114;5.654;2022-09-21T03:15:23;8.30;99.90
40434;DHT22;26146;51.114;5.654;2022-09-21T03:19:26;8.30;99.90
40434;DHT22;26146;51.114;5.654;2022-09-21T03:23:28;8.20;99.90
40434;DHT22;26146;51.114;5.654;2022-09-21T03:27:29;8.30;99.90
40434;DHT22;26146;51.114;5.654;2022-09-21T03:31:30;8.30;99.90
40434;DHT22;26146;51.114;5.654;2022-09-21T03:35:32;8.20;99.90
40434;DHT22;26146;51.114;5.654;2022-09-21T03:39:37;8.20;99.90
40434;DHT22;26146;51.114;5.654;2022-09-21T03:43:40;8.20;99.90
40434;DHT22;26146;51.114;5.654;2022-09-21T03:47:41;8.10;99.90
40434;DHT22;26146;51.114;5.654;2022-09-21T03:51:45;8.20;99.90
40434;DHT22;26146;51.114;5.654;2022-09-21T03:55:46;8.10;99.90
40434;DHT22;26146;51.114;5.654;2022-09-21T03:59:47;7.90;99.90
40434;DHT22;26146;51.114;5.654;2022-09-21T04:03:48;8.00;99.90
40434;DHT22;26146;51.114;5.654;2022-09-21T04:07:52;8.00;99.90
40434;DHT22;26146;51.114;5.654;2022-09-21T04:11:54;8.00;99.90
40434;DHT22;26146;51.114;5.654;2022-09-21T04:15:55;7.90;99.90
40434;DHT22;26146;51.114;5.654;2022-09-21T04:19:56;7.80;99.90
40434;DHT22;26146;51.114;5.654;2022-09-21T04:23:57;7.80;99.90
40434;DHT22;26146;51.114;5.654;2022-09-21T04:27:58;7.80;99.90
40434;DHT22;26146;51.114;5.654;2022-09-21T04:31:59;7.80;99.90
40434;DHT22;26146;51.114;5.654;2022-09-21T04:36:02;7.70;99.90
40434;DHT22;26146;51.114;5.654;2022-09-21T04:40:04;7.70;99.90
40434;DHT22;26146;51.114;5.654;2022-09-21T04:44:05;7.70;99.90
40434;DHT22;26146;51.114;5.654;2022-09-21T04:48:08;7.80;99.90
40434;DHT22;26146;51.114;5.654;2022-09-21T04:52:10;7.80;99.90
40434;DHT22;26146;51.114;5.654;2022-09-21T04:56:13;7.70;99.90
40434;DHT22;26146;51.114;5.654;2022-09-21T05:00:15;7.70;99.90
40434;DHT22;26146;51.114;5.654;2022-09-21T05:04:18;7.60;99.90
40434;DHT22;26146;51.114;5.654;2022-09-21T05:08:20;7.50;99.90
40434;DHT22;26146;51.114;5.654;2022-09-21T05:12:41;7.50;99.90
40434;DHT22;26146;51.114;5.654;2022-09-21T05:16:42;7.60;99.90
40434;DHT22;26146;51.114;5.654;2022-09-21T05:20:43;7.60;99.90
40434;DHT22;26146;51.114;5.654;2022-09-21T05:24:44;7.60;99.90
40434;DHT22;26146;51.114;5.654;2022-09-21T05:28:46;7.70;99.90
40434;DHT22;26146;51.114;5.654;2022-09-21T05:32:53;7.80;99.90
40434;DHT22;26146;51.114;5.654;2022-09-21T05:41:03;7.70;99.90
40434;DHT22;26146;51.114;5.654;2022-09-21T05:45:05;7.70;99.90
40434;DHT22;26146;51.114;5.654;2022-09-21T05:54:24;7.80;99.90
40434;DHT22;26146;51.114;5.654;2022-09-21T06:03:29;7.90;99.90
40434;DHT22;26146;51.114;5.654;2022-09-21T06:07:33;8.00;99.90
40434;DHT22;26146;51.114;5.654;2022-09-21T06:11:34;8.00;99.90
40434;DHT22;26146;51.114;5.654;2022-09-21T06:15:35;8.10;99.90
40434;DHT22;26146;51.114;5.654;2022-09-21T06:19:38;8.30;99.90
40434;DHT22;26146;51.114;5.654;2022-09-21T06:23:38;8.30;99.90
40434;DHT22;26146;51.114;5.654;2022-09-21T06:27:42;8.40;99.90
40434;DHT22;26146;51.114;5.654;2022-09-21T06:31:43;8.50;99.90
40434;DHT22;26146;51.114;5.654;2022-09-21T06:35:53;8.70;99.90
40434;DHT22;26146;51.114;5.654;2022-09-21T06:39:55;8.90;99.90
40434;DHT22;26146;51.114;5.654;2022-09-21T06:43:56;9.20;99.90
40434;DHT22;26146;51.114;5.654;2022-09-21T06:47:57;9.40;99.90
40434;DHT22;26146;51.114;5.654;2022-09-21T06:51:58;9.70;99.90
40434;DHT22;26146;51.114;5.654;2022-09-21T06:56:07;9.90;99.90
40434;DHT22;26146;51.114;5.654;2022-09-21T07:00:12;10.20;99.90
40434;DHT22;26146;51.114;5.654;2022-09-21T07:04:13;10.50;99.90
40434;DHT22;26146;51.114;5.654;2022-09-21T07:08:14;10.60;99.90
40434;DHT22;26146;51.114;5.654;2022-09-21T07:12:15;10.80;99.90
40434;DHT22;26146;51.114;5.654;2022-09-21T07:16:16;10.80;99.90
40434;DHT22;26146;51.114;5.654;2022-09-21T07:20:17;10.90;99.90
40434;DHT22;26146;51.114;5.654;2022-09-21T07:24:18;11.00;99.90
40434;DHT22;26146;51.114;5.654;2022-09-21T07:28:19;11.20;99.90
40434;DHT22;26146;51.114;5.654;2022-09-21T07:32:20;11.50;99.90
40434;DHT22;26146;51.114;5.654;2022-09-21T07:36:21;11.70;99.90
40434;DHT22;26146;51.114;5.654;2022-09-21T07:40:22;11.80;99.90
40434;DHT22;26146;51.114;5.654;2022-09-21T07:44:24;11.90;99.90
40434;DHT22;26146;51.114;5.654;2022-09-21T07:48:25;12.30;99.90
40434;DHT22;26146;51.114;5.654;2022-09-21T07:52:26;12.20;99.90
40434;DHT22;26146;51.114;5.654;2022-09-21T07:56:27;12.40;99.90
40434;DHT22;26146;51.114;5.654;2022-09-21T08:00:28;12.30;99.90
40434;DHT22;26146;51.114;5.654;2022-09-21T08:04:32;12.50;99.90
40434;DHT22;26146;51.114;5.654;2022-09-21T08:08:33;12.70;99.90
40434;DHT22;26146;51.114;5.654;2022-09-21T08:12:34;12.90;99.90
40434;DHT22;26146;51.114;5.654;2022-09-21T08:16:36;12.70;99.90
40434;DHT22;26146;51.114;5.654;2022-09-21T08:20:37;12.90;99.90
40434;DHT22;26146;51.114;5.654;2022-09-21T08:24:38;12.80;99.90
40434;DHT22;26146;51.114;5.654;2022-09-21T08:28:41;13.00;99.90
40434;DHT22;26146;51.114;5.654;2022-09-21T08:32:42;13.20;99.90
40434;DHT22;26146;51.114;5.654;2022-09-21T08:36:45;13.40;99.90
40434;DHT22;26146;51.114;5.654;2022-09-21T08:40:46;13.60;99.90
40434;DHT22;26146;51.114;5.654;2022-09-21T08:44:59;13.60;99.90
40434;DHT22;26146;51.114;5.654;2022-09-21T08:49:14;13.70;99.90
40434;DHT22;26146;51.114;5.654;2022-09-21T08:53:32;13.70;99.90
40434;DHT22;26146;51.114;5.654;2022-09-21T08:57:34;14.20;99.90
40434;DHT22;26146;51.114;5.654;2022-09-21T09:05:54;14.10;99.90
40434;DHT22;26146;51.114;5.654;2022-09-21T09:18:51;14.50;99.90
40434;DHT22;26146;51.114;5.654;2022-09-21T09:31:22;14.80;99.90
40434;DHT22;26146;51.114;5.654;2022-09-21T09:35:29;15.00;99.90
40434;DHT22;26146;51.114;5.654;2022-09-21T09:39:33;15.10;99.90
40434;DHT22;26146;51.114;5.654;2022-09-21T09:52:11;15.50;99.90
40434;DHT22;26146;51.114;5.654;2022-09-21T09:56:13;15.60;99.90
40434;DHT22;26146;51.114;5.654;2022-09-21T10:00:17;15.70;99.90
40434;DHT22;26146;51.114;5.654;2022-09-21T10:04:18;15.80;99.90
40434;DHT22;26146;51.114;5.654;2022-09-21T10:08:27;15.80;99.90
40434;DHT22;26146;51.114;5.654;2022-09-21T10:12:32;16.00;99.90
40434;DHT22;26146;51.114;5.654;2022-09-21T10:16:39;15.90;99.90
40434;DHT22;26146;51.114;5.654;2022-09-21T10:20:55;16.10;99.90
40434;DHT22;26146;51.114;5.654;2022-09-21T10:24:57;16.20;99.90
40434;DHT22;26146;51.114;5.654;2022-09-21T10:33:24;16.40;99.90
40434;DHT22;26146;51.114;5.654;2022-09-21T10:37:33;16.40;99.90
40434;DHT22;26146;51.114;5.654;2022-09-21T10:41:36;16.60;99.90
40434;DHT22;26146;51.114;5.654;2022-09-21T10:45:54;17.00;99.90
40434;DHT22;26146;51.114;5.654;2022-09-21T10:49:59;17.30;99.60
40434;DHT22;26146;51.114;5.654;2022-09-21T10:54:01;17.40;99.50
40434;DHT22;26146;51.114;5.654;2022-09-21T10:58:11;17.60;99.40
40434;DHT22;26146;51.114;5.654;2022-09-21T11:06:50;18.00;98.60
40434;DHT22;26146;51.114;5.654;2022-09-21T11:11:45;17.90;97.70
40434;DHT22;26146;51.114;5.654;2022-09-21T11:20:35;18.30;97.20
40434;DHT22;26146;51.114;5.654;2022-09-21T11:29:14;18.20;96.80
40434;DHT22;26146;51.114;5.654;2022-09-21T11:38:02;18.10;97.50
40434;DHT22;26146;51.114;5.654;2022-09-21T11:46:32;17.90;97.10
40434;DHT22;26146;51.114;5.654;2022-09-21T11:55:33;17.70;96.20
40434;DHT22;26146;51.114;5.654;2022-09-21T12:00:00;17.80;95.50
40434;DHT22;26146;51.114;5.654;2022-09-21T12:13:08;17.90;94.50
40434;DHT22;26146;51.114;5.654;2022-09-21T12:21:55;18.00;95.80
40434;DHT22;26146;51.114;5.654;2022-09-21T12:26:00;18.20;95.20
40434;DHT22;26146;51.114;5.654;2022-09-21T12:30:14;18.10;94.70
40434;DHT22;26146;51.114;5.654;2022-09-21T12:34:23;18.00;91.10
40434;DHT22;26146;51.114;5.654;2022-09-21T12:44:00;18.10;89.50
40434;DHT22;26146;51.114;5.654;2022-09-21T12:48:17;18.30;90.80
40434;DHT22;26146;51.114;5.654;2022-09-21T12:52:30;18.30;92.00
40434;DHT22;26146;51.114;5.654;2022-09-21T12:57:07;18.30;92.50
40434;DHT22;26146;51.114;5.654;2022-09-21T13:09:39;18.50;92.20
40434;DHT22;26146;51.114;5.654;2022-09-21T13:13:51;18.40;91.00
40434;DHT22;26146;51.114;5.654;2022-09-21T13:18:13;18.40;90.10
40434;DHT22;26146;51.114;5.654;2022-09-21T13:30:45;18.70;89.80
40434;DHT22;26146;51.114;5.654;2022-09-21T13:34:46;18.60;89.80
40434;DHT22;26146;51.114;5.654;2022-09-21T13:38:56;18.60;90.50
40434;DHT22;26146;51.114;5.654;2022-09-21T13:43:17;18.70;90.40
40434;DHT22;26146;51.114;5.654;2022-09-21T13:47:34;18.70;88.60
40434;DHT22;26146;51.114;5.654;2022-09-21T13:55:59;18.70;90.00
40434;DHT22;26146;51.114;5.654;2022-09-21T14:04:32;18.70;89.00
40434;DHT22;26146;51.114;5.654;2022-09-21T14:08:38;18.70;84.90
40434;DHT22;26146;51.114;5.654;2022-09-21T14:12:41;18.60;84.90
40434;DHT22;26146;51.114;5.654;2022-09-21T14:16:52;18.80;87.00
40434;DHT22;26146;51.114;5.654;2022-09-21T14:21:09;18.50;86.70
40434;DHT22;26146;51.114;5.654;2022-09-21T14:25:28;18.60;85.60
40434;DHT22;26146;51.114;5.654;2022-09-21T14:33:56;18.70;85.70
40434;DHT22;26146;51.114;5.654;2022-09-21T14:38:02;19.00;84.30
40434;DHT22;26146;51.114;5.654;2022-09-21T14:42:16;19.10;81.60
40434;DHT22;26146;51.114;5.654;2022-09-21T14:46:30;19.00;84.70
40434;DHT22;26146;51.114;5.654;2022-09-21T14:50:45;18.90;83.10
40434;DHT22;26146;51.114;5.654;2022-09-21T15:12:51;18.80;83.60
40434;DHT22;26146;51.114;5.654;2022-09-21T15:16:52;19.00;85.40
40434;DHT22;26146;51.114;5.654;2022-09-21T15:20:58;18.70;89.20
40434;DHT22;26146;51.114;5.654;2022-09-21T15:25:03;18.80;89.70
40434;DHT22;26146;51.114;5.654;2022-09-21T15:29:05;18.70;89.90
40434;DHT22;26146;51.114;5.654;2022-09-21T15:33:10;18.60;89.60
40434;DHT22;26146;51.114;5.654;2022-09-21T15:37:15;18.30;90.30
40434;DHT22;26146;51.114;5.654;2022-09-21T15:49:54;18.10;90.60
40434;DHT22;26146;51.114;5.654;2022-09-21T15:54:04;18.20;89.00
40434;DHT22;26146;51.114;5.654;2022-09-21T16:02:25;18.10;90.80
40434;DHT22;26146;51.114;5.654;2022-09-21T16:06:35;17.90;90.20
40434;DHT22;26146;51.114;5.654;2022-09-21T16:10:38;17.90;90.30
40434;DHT22;26146;51.114;5.654;2022-09-21T16:14:46;17.80;90.10
40434;DHT22;26146;51.114;5.654;2022-09-21T16:18:57;17.90;90.30
40434;DHT22;26146;51.114;5.654;2022-09-21T16:23:14;17.90;89.40
40434;DHT22;26146;51.114;5.654;2022-09-21T16:27:18;17.80;90.50
40434;DHT22;26146;51.114;5.654;2022-09-21T16:31:28;17.60;90.90
40434;DHT22;26146;51.114;5.654;2022-09-21T16:35:37;17.50;90.70
40434;DHT22;26146;51.114;5.654;2022-09-21T16:39:40;17.50;90.90
40434;DHT22;26146;51.114;5.654;2022-09-21T16:43:42;17.50;91.00
40434;DHT22;26146;51.114;5.654;2022-09-21T16:47:43;17.40;91.30
40434;DHT22;26146;51.114;5.654;2022-09-21T16:51:45;17.30;91.50
40434;DHT22;26146;51.114;5.654;2022-09-21T16:55:46;17.20;91.80
40434;DHT22;26146;51.114;5.654;2022-09-21T16:59:48;17.30;91.80
40434;DHT22;26146;51.114;5.654;2022-09-21T17:03:50;17.20;92.30
40434;DHT22;26146;51.114;5.654;2022-09-21T17:07:56;17.20;92.70
40434;DHT22;26146;51.114;5.654;2022-09-21T17:12:01;17.20;93.20
40434;DHT22;26146;51.114;5.654;2022-09-21T17:16:03;17.20;93.50
40434;DHT22;26146;51.114;5.654;2022-09-21T17:20:37;17.10;94.00
40434;DHT22;26146;51.114;5.654;2022-09-21T17:24:48;16.90;95.10
40434;DHT22;26146;51.114;5.654;2022-09-21T17:28:54;16.60;97.40
40434;DHT22;26146;51.114;5.654;2022-09-21T17:32:55;16.30;98.70
40434;DHT22;26146;51.114;5.654;2022-09-21T17:36:57;16.10;99.20
40434;DHT22;26146;51.114;5.654;2022-09-21T17:41:01;15.90;99.80
40434;DHT22;26146;51.114;5.654;2022-09-21T17:45:29;15.70;99.90
40434;DHT22;26146;51.114;5.654;2022-09-21T17:49:35;15.60;99.90
40434;DHT22;26146;51.114;5.654;2022-09-21T17:53:37;15.40;99.90
40434;DHT22;26146;51.114;5.654;2022-09-21T18:01:48;15.00;99.90
40434;DHT22;26146;51.114;5.654;2022-09-21T18:05:53;14.90;99.90
40434;DHT22;26146;51.114;5.654;2022-09-21T18:09:59;14.70;99.90
40434;DHT22;26146;51.114;5.654;2022-09-21T18:18:44;14.40;99.90
40434;DHT22;26146;51.114;5.654;2022-09-21T18:27:08;14.20;99.90
40434;DHT22;26146;51.114;5.654;2022-09-21T18:39:49;13.70;99.90
40434;DHT22;26146;51.114;5.654;2022-09-21T18:44:16;13.70;99.90
40434;DHT22;26146;51.114;5.654;2022-09-21T18:56:42;13.30;99.90
40434;DHT22;26146;51.114;5.654;2022-09-21T19:00:43;13.20;99.90
40434;DHT22;26146;51.114;5.654;2022-09-21T19:04:44;13.00;99.90
40434;DHT22;26146;51.114;5.654;2022-09-21T19:08:58;13.00;99.90
40434;DHT22;26146;51.114;5.654;2022-09-21T19:13:23;13.00;99.90
40434;DHT22;26146;51.114;5.654;2022-09-21T19:26:12;12.70;99.90
40434;DHT22;26146;51.114;5.654;2022-09-21T19:30:15;12.60;99.90
40434;DHT22;26146;51.114;5.654;2022-09-21T19:34:19;12.50;99.90
40434;DHT22;26146;51.114;5.654;2022-09-21T19:38:20;12.40;99.90
40434;DHT22;26146;51.114;5.654;2022-09-21T19:42:37;12.40;99.90
40434;DHT22;26146;51.114;5.654;2022-09-21T19:46:52;12.20;99.90
40434;DHT22;26146;51.114;5.654;2022-09-21T19:50:57;12.20;99.90
40434;DHT22;26146;51.114;5.654;2022-09-21T19:54:58;12.10;99.90
40434;DHT22;26146;51.114;5.654;2022-09-21T19:59:18;12.10;99.90
40434;DHT22;26146;51.114;5.654;2022-09-21T20:03:41;12.00;99.90
40434;DHT22;26146;51.114;5.654;2022-09-21T20:07:49;12.00;99.90
40434;DHT22;26146;51.114;5.654;2022-09-21T20:12:13;11.90;99.90
40434;DHT22;26146;51.114;5.654;2022-09-21T20:20:47;11.70;99.90
40434;DHT22;26146;51.114;5.654;2022-09-21T20:28:52;11.70;99.90
40434;DHT22;26146;51.114;5.654;2022-09-21T20:33:01;11.60;99.90
40434;DHT22;26146;51.114;5.654;2022-09-21T20:37:09;11.60;99.90
40434;DHT22;26146;51.114;5.654;2022-09-21T20:41:11;11.50;99.90
40434;DHT22;26146;51.114;5.654;2022-09-21T20:45:14;11.40;99.90
40434;DHT22;26146;51.114;5.654;2022-09-21T20:49:16;11.40;99.90
40434;DHT22;26146;51.114;5.654;2022-09-21T20:53:17;11.30;99.90
40434;DHT22;26146;51.114;5.654;2022-09-21T20:57:21;11.30;99.90
40434;DHT22;26146;51.114;5.654;2022-09-21T21:01:22;11.20;99.90
40434;DHT22;26146;51.114;5.654;2022-09-21T21:05:24;11.20;99.90
40434;DHT22;26146;51.114;5.654;2022-09-21T21:09:26;11.10;99.90
40434;DHT22;26146;51.114;5.654;2022-09-21T21:13:29;11.10;99.90
40434;DHT22;26146;51.114;5.654;2022-09-21T21:17:29;11.00;99.90
40434;DHT22;26146;51.114;5.654;2022-09-21T21:21:30;10.90;99.90
40434;DHT22;26146;51.114;5.654;2022-09-21T21:25:32;10.90;99.90
40434;DHT22;26146;51.114;5.654;2022-09-21T21:29:33;10.90;99.90
40434;DHT22;26146;51.114;5.654;2022-09-21T21:33:34;10.90;99.90
40434;DHT22;26146;51.114;5.654;2022-09-21T21:37:35;10.80;99.90
40434;DHT22;26146;51.114;5.654;2022-09-21T21:41:37;10.70;99.90
40434;DHT22;26146;51.114;5.654;2022-09-21T21:45:37;10.80;99.90
40434;DHT22;26146;51.114;5.654;2022-09-21T21:49:39;10.70;99.90
40434;DHT22;26146;51.114;5.654;2022-09-21T21:53:46;10.60;99.90
40434;DHT22;26146;51.114;5.654;2022-09-21T21:57:47;10.60;99.90
40434;DHT22;26146;51.114;5.654;2022-09-21T22:01:47;10.60;99.90
40434;DHT22;26146;51.114;5.654;2022-09-21T22:05:54;10.60;99.90
40434;DHT22;26146;51.114;5.654;2022-09-21T22:09:55;10.50;99.90
40434;DHT22;26146;51.114;5.654;2022-09-21T22:13:57;10.40;99.90
40434;DHT22;26146;51.114;5.654;2022-09-21T22:17:58;10.40;99.90
40434;DHT22;26146;51.114;5.654;2022-09-21T22:22:00;10.40;99.90
40434;DHT22;26146;51.114;5.654;2022-09-21T22:26:17;10.40;99.90
40434;DHT22;26146;51.114;5.654;2022-09-21T22:30:18;10.30;99.90
40434;DHT22;26146;51.114;5.654;2022-09-21T22:34:19;10.30;99.90
40434;DHT22;26146;51.114;5.654;2022-09-21T22:38:20;10.20;99.90
40434;DHT22;26146;51.114;5.654;2022-09-21T22:42:21;10.10;99.90
40434;DHT22;26146;51.114;5.654;2022-09-21T22:46:24;10.20;99.90
40434;DHT22;26146;51.114;5.654;2022-09-21T22:50:25;10.10;99.90
40434;DHT22;26146;51.114;5.654;2022-09-21T22:54:28;10.10;99.90
40434;DHT22;26146;51.114;5.654;2022-09-21T22:58:30;10.10;99.90
40434;DHT22;26146;51.114;5.654;2022-09-21T23:02:32;10.00;99.90
40434;DHT22;26146;51.114;5.654;2022-09-21T23:06:36;10.00;99.90
40434;DHT22;26146;51.114;5.654;2022-09-21T23:10:37;9.90;99.90
40434;DHT22;26146;51.114;5.654;2022-09-21T23:14:38;9.80;99.90
40434;DHT22;26146;51.114;5.654;2022-09-21T23:18:39;9.80;99.90
40434;DHT22;26146;51.114;5.654;2022-09-21T23:22:40;9.70;99.90
40434;DHT22;26146;51.114;5.654;2022-09-21T23:26:41;9.70;99.90
40434;DHT22;26146;51.114;5.654;2022-09-21T23:30:42;9.50;99.90
40434;DHT22;26146;51.114;5.654;2022-09-21T23:34:43;9.50;99.90
40434;DHT22;26146;51.114;5.654;2022-09-21T23:38:52;9.50;99.90
40434;DHT22;26146;51.114;5.654;2022-09-21T23:42:53;9.50;99.90
40434;DHT22;26146;51.114;5.654;2022-09-21T23:46:54;9.50;99.90
40434;DHT22;26146;51.114;5.654;2022-09-21T23:50:56;9.40;99.90
40434;DHT22;26146;51.114;5.654;2022-09-21T23:54:57;9.40;99.90
40434;DHT22;26146;51.114;5.654;2022-09-21T23:58:58;9.40;99.90
